Time,TemperatureF,DewpointF,PressureIn,WindDirection,WindDirectionDegrees,WindSpeedMPH,WindSpeedGustMPH,Humidity,HourlyPrecipIn,Conditions,Clouds,dailyrainin,SoftwareType,DateUTC
2013-01-04 00:00:00,12.8,-1.9,30.39,WNW,292,1.0,2.0,51,0.00,,---,0.00,VWS V14.01,2013-01-04 07:00:00,
2013-01-04 00:01:00,12.8,-1.9,30.39,WNW,292,1.0,2.0,51,0.00,,---,0.00,VWS V14.01,2013-01-04 07:01:00,
2013-01-04 00:10:00,12.1,-2.5,30.33,WNW,292,1.0,2.0,51,0.00,,---,0.00,VWS V14.01,2013-01-04 07:10:00,
2013-01-04 00:20:00,11.5,-2.3,30.35,WNW,290,2.0,2.0,53,0.00,,---,0.00,VWS V14.01,2013-01-04 07:20:00,
2013-01-04 00:30:00,11.3,-2.5,30.35,WNW,295,1.0,2.0,53,0.00,,---,0.00,VWS V14.01,2013-01-04 07:30:00,
2013-01-04 00:40:00,12.8,-2.7,30.33,SW,225,1.0,2.0,49,0.00,,---,0.00,VWS V14.01,2013-01-04 07:40:00,
2013-01-04 00:50:00,11.9,-2.7,30.32,WNW,283,2.0,2.0,51,0.00,,---,0.00,VWS V14.01,2013-01-04 07:50:00,
2013-01-04 00:51:00,11.9,-2.7,30.32,WNW,283,2.0,2.0,51,0.00,,---,0.00,VWS V14.01,2013-01-04 07:51:00,
2013-01-04 01:00:00,11.6,-3.0,30.33,WNW,283,1.0,2.0,51,0.00,,---,0.00,VWS V14.01,2013-01-04 08:00:00,
2013-01-04 01:10:00,13.1,-2.9,30.28,WNW,282,1.0,2.0,48,0.00,,---,0.00,VWS V14.01,2013-01-04 08:10:00,
2013-01-04 01:20:00,13.3,-3.2,30.28,WNW,283,1.0,2.0,47,0.00,,---,0.00,VWS V14.01,2013-01-04 08:20:00,
2013-01-04 01:21:00,13.3,-3.2,30.28,WNW,283,1.0,2.0,47,0.00,,---,0.00,VWS V14.01,2013-01-04 08:21:00,
2013-01-04 01:30:00,13.7,-3.7,30.28,WNW,283,1.0,1.0,45,0.00,,---,0.00,VWS V14.01,2013-01-04 08:30:00,
2013-01-04 01:40:00,13.0,-2.1,30.28,WNW,284,1.0,2.0,50,0.00,,---,0.00,VWS V14.01,2013-01-04 08:40:00,
2013-01-04 01:41:00,13.0,-2.1,30.28,WNW,284,1.0,2.0,50,0.00,,---,0.00,VWS V14.01,2013-01-04 08:41:00,
2013-01-04 01:50:00,12.3,-0.8,30.30,NW,326,1.0,2.0,55,0.00,,---,0.00,VWS V14.01,2013-01-04 08:50:00,
2013-01-04 02:00:00,13.0,-0.1,30.28,WNW,302,2.0,2.0,55,0.00,,---,0.00,VWS V14.01,2013-01-04 09:00:00,
2013-01-04 02:10:00,12.5,0.2,30.31,WNW,302,1.0,2.0,57,0.00,,---,0.00,VWS V14.01,2013-01-04 09:10:00,
2013-01-04 02:20:00,12.4,-1.5,30.30,WNW,296,1.0,2.0,53,0.00,,---,0.00,VWS V14.01,2013-01-04 09:20:00,
2013-01-04 02:30:00,11.4,-2.4,30.31,NNE,28,1.0,3.0,53,0.00,,---,0.00,VWS V14.01,2013-01-04 09:30:00,
2013-01-04 02:40:00,10.6,-2.8,30.32,West,279,1.0,2.0,54,0.00,,---,0.00,VWS V14.01,2013-01-04 09:40:00,
2013-01-04 02:41:00,10.6,-2.8,30.32,West,279,1.0,2.0,54,0.00,,---,0.00,VWS V14.01,2013-01-04 09:41:00,
2013-01-04 02:50:00,11.4,-2.4,30.33,West,279,1.0,2.0,53,0.00,,---,0.00,VWS V14.01,2013-01-04 09:50:00,
2013-01-04 02:51:00,11.4,-2.4,30.33,West,279,1.0,2.0,53,0.00,,---,0.00,VWS V14.01,2013-01-04 09:51:00,
2013-01-04 03:00:00,12.2,-2.0,30.31,West,279,1.0,2.0,52,0.00,,---,0.00,VWS V14.01,2013-01-04 10:00:00,
2013-01-04 03:01:00,12.2,-2.0,30.31,West,279,1.0,2.0,52,0.00,,---,0.00,VWS V14.01,2013-01-04 10:01:00,
2013-01-04 03:10:00,11.8,-2.0,30.41,West,279,0.0,1.0,53,0.00,,---,0.00,VWS V14.01,2013-01-04 10:10:00,
2013-01-04 03:20:00,10.9,-2.1,30.43,WNW,299,1.0,2.0,55,0.00,,---,0.00,VWS V14.01,2013-01-04 10:20:00,
2013-01-04 03:30:00,10.3,-1.9,30.42,WNW,299,2.0,2.0,57,0.00,,---,0.00,VWS V14.01,2013-01-04 10:30:00,
2013-01-04 03:40:00,10.2,-2.0,30.42,WNW,293,2.0,2.0,57,0.00,,---,0.00,VWS V14.01,2013-01-04 10:40:00,
2013-01-04 03:50:00,9.6,-2.2,30.42,WNW,295,2.0,2.0,58,0.00,,---,0.00,VWS V14.01,2013-01-04 10:50:00,
2013-01-04 04:00:00,10.2,-2.0,30.44,WNW,295,2.0,2.0,57,0.00,,---,0.00,VWS V14.01,2013-01-04 11:00:00,
2013-01-04 04:01:00,10.2,-2.0,30.44,WNW,295,2.0,2.0,57,0.00,,---,0.00,VWS V14.01,2013-01-04 11:01:00,
2013-01-04 04:10:00,9.5,-1.9,30.46,WNW,283,2.0,2.0,59,0.00,,---,0.00,VWS V14.01,2013-01-04 11:10:00,
2013-01-04 04:20:00,8.7,-2.0,30.46,WNW,289,1.0,3.0,61,0.00,,---,0.00,VWS V14.01,2013-01-04 11:20:00,
2013-01-04 04:30:00,8.9,-2.1,30.46,WNW,290,1.0,2.0,60,0.00,,---,0.00,VWS V14.01,2013-01-04 11:30:00,
2013-01-04 04:40:00,9.5,-1.6,30.44,WNW,290,1.0,2.0,60,0.00,,---,0.00,VWS V14.01,2013-01-04 11:40:00,
2013-01-04 04:50:00,9.3,-1.4,30.46,WNW,283,1.0,3.0,61,0.00,,---,0.00,VWS V14.01,2013-01-04 11:50:00,
2013-01-04 04:51:00,9.3,-1.4,30.46,WNW,283,1.0,3.0,61,0.00,,---,0.00,VWS V14.01,2013-01-04 11:51:00,
2013-01-04 05:00:00,10.1,-1.0,30.46,WNW,282,1.0,2.0,60,0.00,,---,0.00,VWS V14.01,2013-01-04 12:00:00,
2013-01-04 05:01:00,10.1,-1.0,30.46,WNW,282,1.0,2.0,60,0.00,,---,0.00,VWS V14.01,2013-01-04 12:01:00,
2013-01-04 05:10:00,11.0,-0.9,30.44,WNW,282,1.0,1.0,58,0.00,,---,0.00,VWS V14.01,2013-01-04 12:10:00,
2013-01-04 05:20:00,11.0,-0.9,30.43,WNW,283,1.0,1.0,58,0.00,,---,0.00,VWS V14.01,2013-01-04 12:20:00,
2013-01-04 05:30:00,10.6,0.2,30.44,WNW,284,0.0,1.0,62,0.00,,---,0.00,VWS V14.01,2013-01-04 12:30:00,
2013-01-04 05:40:00,10.7,0.6,30.44,WNW,284,2.0,2.0,63,0.00,,---,0.00,VWS V14.01,2013-01-04 12:40:00,
2013-01-04 05:50:00,11.9,0.0,30.43,WNW,284,1.0,2.0,58,0.00,,---,0.00,VWS V14.01,2013-01-04 12:50:00,
2013-01-04 05:51:00,11.9,0.0,30.43,WNW,284,1.0,2.0,58,0.00,,---,0.00,VWS V14.01,2013-01-04 12:51:00,
2013-01-04 06:00:00,11.6,0.1,30.44,WNW,284,0.0,2.0,59,0.00,,---,0.00,VWS V14.01,2013-01-04 13:00:00,
2013-01-04 06:01:00,11.6,0.1,30.44,WNW,284,0.0,2.0,59,0.00,,---,0.00,VWS V14.01,2013-01-04 13:01:00,
2013-01-04 06:10:00,12.0,1.1,30.44,WNW,284,2.0,2.0,61,0.00,,---,0.00,VWS V14.01,2013-01-04 13:10:00,
2013-01-04 06:20:00,11.7,0.2,30.44,NW,315,1.0,2.0,59,0.00,,---,0.00,VWS V14.01,2013-01-04 13:20:00,
2013-01-04 06:30:00,10.0,-0.8,30.46,WNW,297,2.0,2.0,61,0.00,,---,0.00,VWS V14.01,2013-01-04 13:30:00,
2013-01-04 06:40:00,9.6,0.2,30.46,WNW,298,0.0,2.0,65,0.00,,---,0.00,VWS V14.01,2013-01-04 13:40:00,
2013-01-04 06:50:00,10.4,0.0,30.46,WNW,298,1.0,1.0,62,0.00,,---,0.00,VWS V14.01,2013-01-04 13:50:00,
2013-01-04 07:00:00,10.7,-0.1,30.44,WNW,298,1.0,1.0,61,0.00,,---,0.00,VWS V14.01,2013-01-04 14:00:00,
2013-01-04 07:01:00,10.7,-0.1,30.44,WNW,298,1.0,1.0,61,0.00,,---,0.00,VWS V14.01,2013-01-04 14:01:00,
2013-01-04 07:10:00,9.4,-0.3,30.42,WNW,298,1.0,2.0,64,0.00,,---,0.00,VWS V14.01,2013-01-04 14:10:00,
2013-01-04 07:20:00,9.2,-0.2,30.44,WNW,302,0.0,2.0,65,0.00,,---,0.00,VWS V14.01,2013-01-04 14:20:00,
2013-01-04 07:30:00,9.9,0.2,30.43,WNW,296,0.0,1.0,64,0.00,,---,0.00,VWS V14.01,2013-01-04 14:30:00,
2013-01-04 07:40:00,11.0,0.5,30.43,WNW,298,1.0,1.0,62,0.00,,---,0.00,VWS V14.01,2013-01-04 14:40:00,
2013-01-04 07:50:00,11.3,0.5,30.43,WNW,297,1.0,2.0,61,0.00,,---,0.00,VWS V14.01,2013-01-04 14:50:00,
2013-01-04 07:51:00,11.3,0.5,30.43,WNW,297,1.0,2.0,61,0.00,,---,0.00,VWS V14.01,2013-01-04 14:51:00,
2013-01-04 08:00:00,12.9,1.6,30.42,SSE,160,1.0,3.0,60,0.00,,---,0.00,VWS V14.01,2013-01-04 15:00:00,
2013-01-04 08:01:00,12.9,1.6,30.42,SSE,160,1.0,3.0,60,0.00,,---,0.00,VWS V14.01,2013-01-04 15:01:00,
2013-01-04 08:10:00,14.8,0.8,30.44,SSE,148,0.0,2.0,53,0.00,,---,0.00,VWS V14.01,2013-01-04 15:10:00,
2013-01-04 08:20:00,14.7,0.3,30.44,SSE,148,0.0,1.0,52,0.00,,---,0.00,VWS V14.01,2013-01-04 15:20:00,
2013-01-04 08:30:00,17.6,2.6,30.42,SE,136,0.0,0.0,51,0.00,,---,0.00,VWS V14.01,2013-01-04 15:30:00,
2013-01-04 08:31:00,17.6,2.6,30.42,SE,136,0.0,0.0,51,0.00,,---,0.00,VWS V14.01,2013-01-04 15:31:00,
2013-01-04 08:40:00,18.8,1.0,30.41,SE,136,0.0,2.0,45,0.00,,---,0.00,VWS V14.01,2013-01-04 15:40:00,
2013-01-04 08:50:00,19.8,0.9,30.41,ESE,120,0.0,1.0,43,0.00,,---,0.00,VWS V14.01,2013-01-04 15:50:00,
2013-01-04 08:51:00,19.8,0.9,30.41,ESE,120,0.0,1.0,43,0.00,,---,0.00,VWS V14.01,2013-01-04 15:51:00,
2013-01-04 09:00:00,20.2,1.3,30.41,ESE,120,1.0,1.0,43,0.00,,---,0.00,VWS V14.01,2013-01-04 16:00:00,
2013-01-04 09:01:00,20.2,1.3,30.41,ESE,120,1.0,1.0,43,0.00,,---,0.00,VWS V14.01,2013-01-04 16:01:00,
2013-01-04 09:10:00,20.9,1.4,30.38,East,98,1.0,2.0,42,0.00,,---,0.00,VWS V14.01,2013-01-04 16:10:00,
2013-01-04 09:11:00,20.9,1.4,30.38,East,98,1.0,2.0,42,0.00,,---,0.00,VWS V14.01,2013-01-04 16:11:00,
2013-01-04 09:20:00,22.9,2.2,30.37,East,89,0.0,1.0,40,0.00,,---,0.00,VWS V14.01,2013-01-04 16:20:00,
2013-01-04 09:21:00,22.9,2.2,30.37,East,89,0.0,1.0,40,0.00,,---,0.00,VWS V14.01,2013-01-04 16:21:00,
2013-01-04 09:30:00,23.0,2.3,30.36,East,90,1.0,3.0,40,0.00,,---,0.00,VWS V14.01,2013-01-04 16:30:00,
2013-01-04 09:40:00,23.8,2.5,30.36,ESE,111,1.0,2.0,39,0.00,,---,0.00,VWS V14.01,2013-01-04 16:40:00,
2013-01-04 09:41:00,23.8,2.5,30.36,ESE,111,1.0,2.0,39,0.00,,---,0.00,VWS V14.01,2013-01-04 16:41:00,
2013-01-04 09:50:00,23.4,2.1,30.36,ENE,66,0.0,4.0,39,0.00,,---,0.00,VWS V14.01,2013-01-04 16:50:00,
2013-01-04 10:00:00,24.3,2.9,30.35,NE,40,0.0,3.0,39,0.00,,---,0.00,VWS V14.01,2013-01-04 17:00:00,
2013-01-04 10:10:00,26.0,2.7,30.35,East,89,1.0,3.0,36,0.00,,---,0.00,VWS V14.01,2013-01-04 17:10:00,
2013-01-04 10:20:00,26.4,2.5,30.35,East,86,2.0,3.0,35,0.00,,---,0.00,VWS V14.01,2013-01-04 17:20:00,
2013-01-04 10:30:00,28.8,4.0,30.33,SE,126,0.0,3.0,34,0.00,,---,0.00,VWS V14.01,2013-01-04 17:30:00,
2013-01-04 10:40:00,28.3,3.5,30.32,ENE,76,0.0,3.0,34,0.00,,---,0.00,VWS V14.01,2013-01-04 17:40:00,
2013-01-04 10:50:00,29.1,4.2,30.31,East,85,1.0,3.0,34,0.00,,---,0.00,VWS V14.01,2013-01-04 17:50:00,
2013-01-04 11:00:00,32.1,6.2,30.26,ESE,117,2.0,4.0,33,0.00,,---,0.00,VWS V14.01,2013-01-04 18:00:00,
2013-01-04 11:10:00,32.4,4.4,30.22,SSE,157,2.0,3.0,30,0.00,,---,0.00,VWS V14.01,2013-01-04 18:10:00,
2013-01-04 11:20:00,33.4,6.0,30.21,East,92,2.0,4.0,31,0.00,,---,0.00,VWS V14.01,2013-01-04 18:20:00,
2013-01-04 11:30:00,33.8,5.7,30.20,ESE,123,3.0,5.0,30,0.00,,---,0.00,VWS V14.01,2013-01-04 18:30:00,
2013-01-04 11:40:00,34.3,5.4,30.19,SE,146,4.0,4.0,29,0.00,,---,0.00,VWS V14.01,2013-01-04 18:40:00,
2013-01-04 11:50:00,34.7,5.7,30.16,ESE,111,1.0,5.0,29,0.00,,---,0.00,VWS V14.01,2013-01-04 18:50:00,
2013-01-04 12:00:00,34.8,5.8,30.15,SSE,156,2.0,3.0,29,0.00,,---,0.00,VWS V14.01,2013-01-04 19:00:00,
2013-01-04 12:10:00,37.3,7.2,30.14,SE,141,1.0,3.0,28,0.00,,---,0.00,VWS V14.01,2013-01-04 19:10:00,
2013-01-04 12:20:00,37.4,6.5,30.13,ESE,117,0.0,3.0,27,0.00,,---,0.00,VWS V14.01,2013-01-04 19:20:00,
2013-01-04 12:30:00,38.0,6.2,30.10,SE,128,1.0,2.0,26,0.00,,---,0.00,VWS V14.01,2013-01-04 19:30:00,
2013-01-04 12:40:00,39.7,6.8,30.08,ESE,118,1.0,3.0,25,0.00,,---,0.00,VWS V14.01,2013-01-04 19:40:00,
2013-01-04 12:50:00,40.7,6.7,30.07,SE,128,2.0,3.0,24,0.01,,---,0.01,VWS V14.01,2013-01-04 19:50:00,
2013-01-04 13:00:00,41.0,7.0,30.05,SSE,153,1.0,3.0,24,0.01,,---,0.01,VWS V14.01,2013-01-04 20:00:00,
2013-01-04 13:10:00,40.4,7.4,30.03,ENE,71,3.0,3.0,25,0.02,,---,0.02,VWS V14.01,2013-01-04 20:10:00,
2013-01-04 13:20:00,39.7,5.9,30.04,SE,130,2.0,3.0,24,0.02,,---,0.02,VWS V14.01,2013-01-04 20:20:00,
2013-01-04 13:30:00,39.2,6.3,30.04,East,100,0.0,3.0,25,0.02,,---,0.02,VWS V14.01,2013-01-04 20:30:00,
2013-01-04 13:40:00,41.5,9.2,30.01,SE,126,0.0,2.0,26,0.03,,---,0.03,VWS V14.01,2013-01-04 20:40:00,
2013-01-04 13:50:00,42.8,8.5,29.99,ESE,117,3.0,3.0,24,0.03,,---,0.03,VWS V14.01,2013-01-04 20:50:00,
2013-01-04 14:00:00,43.7,8.3,29.98,SE,139,3.0,3.0,23,0.02,,---,0.03,VWS V14.01,2013-01-04 21:00:00,
2013-01-04 14:10:00,43.6,6.2,29.98,East,82,1.0,4.0,21,0.03,,---,0.04,VWS V14.01,2013-01-04 21:10:00,
2013-01-04 14:20:00,43.9,7.5,29.98,SE,135,1.0,3.0,22,0.02,,---,0.04,VWS V14.01,2013-01-04 21:20:00,
2013-01-04 14:30:00,43.6,9.2,29.97,SSE,159,0.0,3.0,24,0.02,,---,0.04,VWS V14.01,2013-01-04 21:30:00,
2013-01-04 14:40:00,42.5,6.3,29.99,SSE,151,1.0,3.0,22,0.02,,---,0.04,VWS V14.01,2013-01-04 21:40:00,
2013-01-04 14:50:00,40.8,5.9,30.00,South,186,0.0,4.0,23,0.02,,---,0.05,VWS V14.01,2013-01-04 21:50:00,
2013-01-04 15:00:00,40.9,6.0,30.00,SW,230,0.0,3.0,23,0.02,,---,0.05,VWS V14.01,2013-01-04 22:00:00,
2013-01-04 15:10:00,40.4,8.2,30.02,SSE,157,0.0,2.0,26,0.02,,---,0.05,VWS V14.01,2013-01-04 22:10:00,
2013-01-04 15:20:00,39.2,8.0,30.03,SSW,196,0.0,4.0,27,0.01,,---,0.05,VWS V14.01,2013-01-04 22:20:00,
2013-01-04 15:30:00,37.7,5.9,30.03,SSE,160,4.0,4.0,26,0.01,,---,0.05,VWS V14.01,2013-01-04 22:30:00,
2013-01-04 15:40:00,37.0,6.9,30.05,SW,234,2.0,5.0,28,0.01,,---,0.05,VWS V14.01,2013-01-04 22:40:00,
2013-01-04 15:50:00,32.7,8.7,30.09,West,281,2.0,2.0,36,0.01,,---,0.05,VWS V14.01,2013-01-04 22:50:00,
2013-01-04 16:00:00,29.3,8.5,30.12,WNW,283,1.0,2.0,41,0.00,,---,0.05,VWS V14.01,2013-01-04 23:00:00,
2013-01-04 16:10:00,27.7,8.6,30.12,West,279,2.0,3.0,44,0.00,,---,0.05,VWS V14.01,2013-01-04 23:10:00,
2013-01-04 16:20:00,27.0,9.0,30.14,West,280,2.0,3.0,46,0.00,,---,0.05,VWS V14.01,2013-01-04 23:20:00,
2013-01-04 16:30:00,26.7,9.2,30.14,WNW,287,2.0,3.0,47,0.00,,---,0.05,VWS V14.01,2013-01-04 23:30:00,
2013-01-04 16:40:00,25.9,8.9,30.14,WNW,284,1.0,3.0,48,0.00,,---,0.05,VWS V14.01,2013-01-04 23:40:00,
2013-01-04 16:50:00,25.9,8.9,30.14,WNW,299,2.0,3.0,48,0.00,,---,0.05,VWS V14.01,2013-01-04 23:50:00,
2013-01-04 17:00:00,24.6,8.6,30.16,NNW,346,3.0,4.0,50,0.00,,---,0.05,VWS V14.01,2013-01-05 00:00:00,
2013-01-04 17:10:00,25.5,8.6,30.13,WNW,290,1.0,3.0,48,0.00,,---,0.05,VWS V14.01,2013-01-05 00:10:00,
2013-01-04 17:20:00,26.1,9.1,30.13,WNW,284,2.0,2.0,48,0.00,,---,0.05,VWS V14.01,2013-01-05 00:20:00,
2013-01-04 17:30:00,24.7,8.3,30.15,WNW,295,2.0,3.0,49,0.00,,---,0.05,VWS V14.01,2013-01-05 00:30:00,
2013-01-04 17:40:00,25.8,8.4,30.13,NW,306,2.0,4.0,47,0.00,,---,0.05,VWS V14.01,2013-01-05 00:40:00,
2013-01-04 17:50:00,27.7,8.1,30.12,North,351,1.0,4.0,43,0.00,,---,0.05,VWS V14.01,2013-01-05 00:50:00,
2013-01-04 18:00:00,28.1,7.4,30.12,NW,316,0.0,4.0,41,0.00,,---,0.05,VWS V14.01,2013-01-05 01:00:00,
2013-01-04 18:10:00,27.8,7.7,30.14,NW,314,0.0,2.0,42,0.00,,---,0.05,VWS V14.01,2013-01-05 01:10:00,
2013-01-04 18:20:00,26.5,8.0,30.14,WNW,295,0.0,2.0,45,0.00,,---,0.05,VWS V14.01,2013-01-05 01:20:00,
2013-01-04 18:30:00,24.6,8.2,30.16,WNW,302,2.0,2.0,49,0.00,,---,0.05,VWS V14.01,2013-01-05 01:30:00,
2013-01-04 18:40:00,24.2,7.8,30.18,NNW,336,1.0,3.0,49,0.00,,---,0.05,VWS V14.01,2013-01-05 01:40:00,
2013-01-04 18:50:00,24.0,7.2,30.19,WNW,302,1.0,2.0,48,0.00,,---,0.05,VWS V14.01,2013-01-05 01:50:00,
2013-01-04 19:00:00,24.5,7.2,30.17,WNW,296,0.0,2.0,47,0.00,,---,0.05,VWS V14.01,2013-01-05 02:00:00,
2013-01-04 19:10:00,23.7,7.8,30.17,WNW,296,0.0,2.0,50,0.00,,---,0.05,VWS V14.01,2013-01-05 02:10:00,
2013-01-04 19:20:00,24.3,7.0,30.17,WNW,299,0.0,2.0,47,0.00,,---,0.05,VWS V14.01,2013-01-05 02:20:00,
2013-01-04 19:30:00,23.5,6.7,30.17,WNW,298,2.0,2.0,48,0.00,,---,0.05,VWS V14.01,2013-01-05 02:30:00,
2013-01-04 19:40:00,22.9,6.2,30.17,NW,309,1.0,2.0,48,0.00,,---,0.05,VWS V14.01,2013-01-05 02:40:00,
2013-01-04 19:50:00,22.7,6.4,30.17,WNW,294,0.0,2.0,49,0.00,,---,0.05,VWS V14.01,2013-01-05 02:50:00,
2013-01-04 20:00:00,22.1,6.3,30.19,SW,215,1.0,3.0,50,0.00,,---,0.05,VWS V14.01,2013-01-05 03:00:00,
2013-01-04 20:10:00,23.5,4.8,30.11,West,259,2.0,3.0,44,0.00,,---,0.05,VWS V14.01,2013-01-05 03:10:00,
2013-01-04 20:20:00,22.8,4.2,30.11,West,279,2.0,2.0,44,0.00,,---,0.05,VWS V14.01,2013-01-05 03:20:00,
2013-01-04 20:30:00,22.5,4.4,30.12,West,279,1.0,2.0,45,0.00,,---,0.05,VWS V14.01,2013-01-05 03:30:00,
2013-01-04 20:40:00,23.5,4.8,30.12,WSW,253,1.0,5.0,44,0.00,,---,0.05,VWS V14.01,2013-01-05 03:40:00,
2013-01-04 20:50:00,23.0,4.3,30.12,WSW,246,4.0,4.0,44,0.00,,---,0.05,VWS V14.01,2013-01-05 03:50:00,
2013-01-04 21:00:00,23.2,4.5,30.13,WNW,290,2.0,4.0,44,0.00,,---,0.05,VWS V14.01,2013-01-05 04:00:00,
2013-01-04 21:10:00,22.3,3.2,30.09,NNE,26,3.0,3.0,43,0.00,,---,0.05,VWS V14.01,2013-01-05 04:10:00,
2013-01-04 21:20:00,22.1,3.0,30.09,WSW,252,1.0,3.0,43,0.00,,---,0.05,VWS V14.01,2013-01-05 04:20:00,
2013-01-04 21:30:00,21.7,3.2,30.09,WNW,289,1.0,5.0,44,0.00,,---,0.05,VWS V14.01,2013-01-05 04:30:00,
2013-01-04 21:40:00,21.1,2.6,30.11,WSW,254,1.0,3.0,44,0.00,,---,0.05,VWS V14.01,2013-01-05 04:40:00,
2013-01-04 21:50:00,21.6,2.1,30.11,SSW,209,4.0,4.0,42,0.00,,---,0.05,VWS V14.01,2013-01-05 04:50:00,
2013-01-04 22:00:00,22.9,1.1,30.09,SSW,196,6.0,6.0,38,0.00,,---,0.05,VWS V14.01,2013-01-05 05:00:00,
2013-01-04 22:10:00,23.6,1.7,30.01,West,265,1.0,7.0,38,0.00,,---,0.05,VWS V14.01,2013-01-05 05:10:00,
2013-01-04 22:20:00,21.3,1.8,30.03,WSW,240,4.0,4.0,42,0.00,,---,0.05,VWS V14.01,2013-01-05 05:20:00,
2013-01-04 22:30:00,20.2,1.3,30.05,WSW,256,2.0,6.0,43,0.00,,---,0.05,VWS V14.01,2013-01-05 05:30:00,
2013-01-04 22:40:00,20.0,-0.4,30.05,NW,321,2.0,6.0,40,0.00,,---,0.05,VWS V14.01,2013-01-05 05:40:00,
2013-01-04 22:50:00,20.1,0.2,30.05,WNW,287,1.0,4.0,41,0.00,,---,0.05,VWS V14.01,2013-01-05 05:50:00,
2013-01-04 23:00:00,19.1,-0.7,30.07,WSW,240,1.0,3.0,41,0.00,,---,0.05,VWS V14.01,2013-01-05 06:00:00,
2013-01-04 23:10:00,19.3,-1.1,30.04,SSE,165,2.0,3.0,40,0.00,,---,0.05,VWS V14.01,2013-01-05 06:10:00,
2013-01-04 23:20:00,19.0,-1.3,30.03,SW,222,1.0,3.0,40,0.00,,---,0.05,VWS V14.01,2013-01-05 06:20:00,
2013-01-04 23:30:00,19.2,-1.1,30.04,SE,145,1.0,5.0,40,0.00,,---,0.05,VWS V14.01,2013-01-05 06:30:00,
2013-01-04 23:40:00,18.2,-1.5,30.06,SE,132,1.0,4.0,41,0.00,,---,0.05,VWS V14.01,2013-01-05 06:40:00,
2013-01-04 23:50:00,17.2,-1.4,30.05,West,269,2.0,4.0,43,0.00,,---,0.05,VWS V14.01,2013-01-05 06:50:00,